createdAt,value
2018-03-28T00:01:27.245Z,28.55
2018-03-28T00:03:55.265Z,30.05
2018-03-28T00:06:25.512Z,28.95
2018-03-28T00:08:53.093Z,27.05
2018-03-28T00:11:23.092Z,29.50
2018-03-28T00:13:54.676Z,26.40
2018-03-28T00:16:22.685Z,28.73
2018-03-28T00:18:53.905Z,27.90
2018-03-28T00:21:26.811Z,29.35
2018-03-28T00:23:56.884Z,28.02
2018-03-28T00:26:24.889Z,27.98
2018-03-28T00:28:52.901Z,26.80
2018-03-28T00:31:21.914Z,27.85
2018-03-28T00:33:49.924Z,28.70
2018-03-28T00:36:22.343Z,25.33
2018-03-28T00:38:51.345Z,26.12
2018-03-28T00:41:20.333Z,26.05
2018-03-28T00:43:48.348Z,26.45
2018-03-28T00:46:17.204Z,28.08
2018-03-28T00:48:46.177Z,26.98
2018-03-28T00:54:13.754Z,25.77
2018-03-28T00:56:45.532Z,25.23
2018-03-28T00:59:13.561Z,24.75
2018-03-28T01:01:48.037Z,24.33
2018-03-28T01:04:21.616Z,24.02
2018-03-28T01:06:51.612Z,23.45
2018-03-28T01:09:20.648Z,24.70
2018-03-28T01:14:49.864Z,23.65
2018-03-28T01:17:25.244Z,23.23
2018-03-28T01:20:14.392Z,23.83
2018-03-28T01:22:48.841Z,23.65
2018-03-28T01:25:29.721Z,27.17
2018-03-28T01:28:08.539Z,22.33
2018-03-28T01:30:37.548Z,22.85
2018-03-28T01:33:07.236Z,23.08
2018-03-28T01:35:40.120Z,24.95
2018-03-28T01:38:09.144Z,25.62
2018-03-28T01:40:40.600Z,24.90
2018-03-28T01:43:09.568Z,23.55
2018-03-28T01:45:37.608Z,25.15
2018-03-28T01:48:08.788Z,23.55
2018-03-28T01:50:36.801Z,22.73
2018-03-28T01:56:13.692Z,22.58
2018-03-28T01:58:41.732Z,22.48
2018-03-28T02:01:10.724Z,23.15
2018-03-28T02:03:56.370Z,23.38
2018-03-28T02:06:31.708Z,22.02
2018-03-28T02:09:05.663Z,23.38
2018-03-28T02:11:44.348Z,23.00
2018-03-28T02:14:12.348Z,23.33
2018-03-28T02:16:40.380Z,23.98
2018-03-28T02:22:02.872Z,23.23
2018-03-28T02:24:44.296Z,22.98
2018-03-28T02:27:16.631Z,21.98
2018-03-28T02:29:49.307Z,23.83
2018-03-28T02:32:23.920Z,23.30
2018-03-28T02:34:58.615Z,24.98
2018-03-28T02:37:34.369Z,22.73
2018-03-28T02:40:16.844Z,24.27
2018-03-28T02:42:49.180Z,24.55
2018-03-28T02:45:39.033Z,23.40
2018-03-28T02:48:08.072Z,20.67
2018-03-28T02:50:37.047Z,22.80
2018-03-28T02:53:06.074Z,23.58
2018-03-28T02:55:47.481Z,24.05
2018-03-28T02:58:20.732Z,21.87
2018-03-28T03:00:56.187Z,21.10
2018-03-28T03:03:26.884Z,21.70
2018-03-28T03:06:19.396Z,21.05
2018-03-28T03:08:53.144Z,23.02
2018-03-28T03:11:27.895Z,22.30
2018-03-28T03:14:18.316Z,23.02
2018-03-28T03:16:59.335Z,21.10
2018-03-28T03:19:29.339Z,19.62
2018-03-28T03:22:04.859Z,20.25
2018-03-28T03:24:34.772Z,18.98
2018-03-28T03:27:16.375Z,19.35
2018-03-28T03:29:44.415Z,19.15
2018-03-28T03:32:18.386Z,19.30
2018-03-28T03:35:07.104Z,19.48
2018-03-28T03:37:43.609Z,19.17
2018-03-28T03:40:16.679Z,18.10
2018-03-28T03:42:44.734Z,18.85
2018-03-28T03:45:26.575Z,19.73
2018-03-28T03:47:55.495Z,19.05
2018-03-28T03:50:30.439Z,17.10
2018-03-28T03:53:01.679Z,17.52
2018-03-28T03:55:43.935Z,18.85
2018-03-28T03:58:17.259Z,17.80
2018-03-28T04:00:58.791Z,16.70
2018-03-28T04:03:52.755Z,18.27
2018-03-28T04:06:29.547Z,17.00
2018-03-28T04:09:24.323Z,17.55
2018-03-28T04:14:53.975Z,16.25
2018-03-28T04:17:34.341Z,18.23
2018-03-28T04:20:02.371Z,16.92
2018-03-28T04:22:41.083Z,16.90
2018-03-28T04:25:22.471Z,15.68
2018-03-28T04:30:47.758Z,17.83
2018-03-28T04:33:19.584Z,16.87
2018-03-28T04:35:48.610Z,15.52
2018-03-28T04:38:38.002Z,14.65
2018-03-28T04:41:16.459Z,16.55
2018-03-28T04:44:05.587Z,16.65
2018-03-28T04:46:39.235Z,15.73
2018-03-28T04:49:08.218Z,16.33
2018-03-28T04:51:38.238Z,15.25
2018-03-28T04:54:06.415Z,15.88
2018-03-28T04:56:39.594Z,16.70
2018-03-28T04:59:11.566Z,14.35
2018-03-28T05:01:44.271Z,15.45
2018-03-28T05:04:21.595Z,16.80
2018-03-28T05:06:54.743Z,16.77
2018-03-28T05:09:33.419Z,17.00
2018-03-28T05:12:23.866Z,16.85
2018-03-28T05:14:56.239Z,15.13
2018-03-28T05:17:25.202Z,16.05
2018-03-28T05:19:53.230Z,14.55
2018-03-28T05:22:26.803Z,13.93
2018-03-28T05:24:56.779Z,15.05
2018-03-28T05:27:29.158Z,15.65
2018-03-28T05:30:01.856Z,16.62
2018-03-28T05:32:43.063Z,16.95
2018-03-28T05:35:31.108Z,15.88
2018-03-28T05:38:00.138Z,16.30
2018-03-28T05:40:28.158Z,17.27
2018-03-28T05:43:07.934Z,17.27
2018-03-28T05:45:43.054Z,17.15
2018-03-28T05:48:16.287Z,17.75
2018-03-28T05:50:52.610Z,16.98
2018-03-28T05:53:20.658Z,19.23
2018-03-28T05:55:48.663Z,18.23
2018-03-28T05:58:23.586Z,15.60
2018-03-28T06:00:58.294Z,16.70
2018-03-28T06:03:31.749Z,17.05
2018-03-28T06:05:59.754Z,17.48
2018-03-28T06:08:29.722Z,18.58
2018-03-28T06:11:02.390Z,17.33
2018-03-28T06:13:31.386Z,17.65
2018-03-28T06:15:59.410Z,18.17
2018-03-28T06:18:28.383Z,17.37
2018-03-28T06:20:56.378Z,18.48
2018-03-28T06:23:34.592Z,17.60
2018-03-28T06:26:02.606Z,15.45
2018-03-28T06:28:42.189Z,16.73
2018-03-28T06:31:33.094Z,16.65
2018-03-28T06:34:02.012Z,15.75
2018-03-28T06:36:31.034Z,15.88
2018-03-28T06:38:59.045Z,12.68
2018-03-28T06:41:30.624Z,13.98
2018-03-28T06:44:06.873Z,13.80
2018-03-28T06:46:38.158Z,12.43
2018-03-28T06:49:09.923Z,12.55
2018-03-28T06:51:46.686Z,11.80
2018-03-28T06:54:20.199Z,12.15
2018-03-28T06:56:56.038Z,11.32
2018-03-28T06:59:25.400Z,12.37
2018-03-28T07:01:56.437Z,11.40
2018-03-28T07:04:26.381Z,10.95
2018-03-28T07:06:53.897Z,11.30
2018-03-28T07:09:21.390Z,11.80
2018-03-28T07:12:19.822Z,9.85
2018-03-28T07:14:58.705Z,9.63
2018-03-28T07:17:35.360Z,9.80
2018-03-28T07:20:05.278Z,9.63
2018-03-28T07:22:33.277Z,9.52
2018-03-28T07:25:02.247Z,10.73
2018-03-28T07:27:34.374Z,9.50
2018-03-28T07:30:04.042Z,10.63
2018-03-28T07:32:37.009Z,9.88
2018-03-28T07:35:06.921Z,10.63
2018-03-28T07:37:35.905Z,10.27
2018-03-28T07:40:04.949Z,10.43
2018-03-28T07:42:54.842Z,9.45
2018-03-28T07:45:24.710Z,9.25
2018-03-28T07:47:57.709Z,9.70
2018-03-28T07:50:26.605Z,9.73
2018-03-28T07:52:55.565Z,9.40
2018-03-28T07:55:27.130Z,8.30
2018-03-28T07:57:55.133Z,7.85
2018-03-28T08:00:30.303Z,8.75
2018-03-28T08:02:59.213Z,8.13
2018-03-28T08:05:30.373Z,8.30
2018-03-28T08:07:59.265Z,8.52
2018-03-28T08:10:27.277Z,9.02
2018-03-28T08:12:57.950Z,8.73
2018-03-28T08:15:27.850Z,7.65
2018-03-28T08:17:55.845Z,7.32
2018-03-28T08:20:23.837Z,7.37
2018-03-28T08:22:55.779Z,6.70
2018-03-28T08:25:23.789Z,7.65
2018-03-28T08:27:56.417Z,7.60
2018-03-28T08:30:35.821Z,10.25
2018-03-28T08:33:04.842Z,8.68
2018-03-28T08:35:37.381Z,7.82
2018-03-28T08:38:06.341Z,9.85
2018-03-28T08:40:35.113Z,9.07
2018-03-28T08:43:04.098Z,10.20
2018-03-28T08:45:32.109Z,9.38
2018-03-28T08:48:02.085Z,7.78
2018-03-28T08:50:30.986Z,9.18
2018-03-28T08:53:04.506Z,8.80
2018-03-28T08:55:36.207Z,8.98
2018-03-28T08:58:05.098Z,8.23
2018-03-28T09:00:43.310Z,8.10
2018-03-28T09:03:14.046Z,7.85
2018-03-28T09:05:42.077Z,8.10
2018-03-28T09:08:15.785Z,9.50
2018-03-28T09:10:46.854Z,8.95
2018-03-28T09:13:14.854Z,8.90
2018-03-28T09:15:42.869Z,11.00
2018-03-28T09:18:10.874Z,10.65
2018-03-28T09:20:39.870Z,9.90
2018-03-28T09:23:07.874Z,10.90
2018-03-28T09:25:35.885Z,10.10
2018-03-28T09:28:08.235Z,8.80
2018-03-28T09:30:36.238Z,13.73
2018-03-28T09:33:07.766Z,9.77
2018-03-28T09:35:35.773Z,9.38
2018-03-28T09:38:03.805Z,8.27
2018-03-28T09:40:37.113Z,9.27
2018-03-28T09:43:06.037Z,7.90
2018-03-28T09:45:36.020Z,8.15
2018-03-28T09:48:04.033Z,7.30
2018-03-28T09:50:33.808Z,7.80
2018-03-28T09:53:03.713Z,8.17
2018-03-28T09:55:31.725Z,8.53
2018-03-28T09:58:00.993Z,7.87
2018-03-28T10:00:30.861Z,7.90
2018-03-28T10:03:07.092Z,8.10
2018-03-28T10:05:39.049Z,8.43
2018-03-28T10:08:07.063Z,7.33
2018-03-28T10:10:38.347Z,6.50
2018-03-28T10:13:09.161Z,7.50
2018-03-28T10:15:39.609Z,7.00
2018-03-28T10:18:07.656Z,9.37
2018-03-28T10:20:37.385Z,8.40
2018-03-28T10:23:07.394Z,7.43
2018-03-28T10:25:36.389Z,6.70
2018-03-28T10:28:08.265Z,6.80
2018-03-28T10:30:40.005Z,7.10
2018-03-28T10:33:08.617Z,6.50
2018-03-28T10:35:37.597Z,6.20
2018-03-28T10:38:05.605Z,6.57
2018-03-28T10:40:34.538Z,6.50
2018-03-28T10:43:02.549Z,6.70
2018-03-28T10:45:31.329Z,7.10
2018-03-28T10:48:01.220Z,6.60
2018-03-28T10:50:29.224Z,6.82
2018-03-28T10:52:59.028Z,8.50
2018-03-28T10:55:27.041Z,7.68
2018-03-28T10:58:02.477Z,9.45
2018-03-28T11:00:32.416Z,6.40
2018-03-28T11:03:04.293Z,6.62
2018-03-28T11:05:37.880Z,7.00
2018-03-28T11:08:06.880Z,7.18
2018-03-28T11:10:43.212Z,7.03
2018-03-28T11:13:30.312Z,6.70
2018-03-28T11:15:59.241Z,7.03
2018-03-28T11:18:41.068Z,6.67
2018-03-28T11:21:13.408Z,7.00
2018-03-28T11:23:46.197Z,6.43
2018-03-28T11:26:17.940Z,7.27
2018-03-28T11:28:52.648Z,6.43
2018-03-28T11:31:20.648Z,7.07
2018-03-28T11:33:49.629Z,7.33
2018-03-28T11:36:20.976Z,6.57
2018-03-28T11:38:48.999Z,6.30
2018-03-28T11:41:18.668Z,6.63
2018-03-28T11:43:47.652Z,5.70
2018-03-28T11:46:20.481Z,5.73
2018-03-28T11:48:49.424Z,6.93
2018-03-28T11:51:21.956Z,6.83
2018-03-28T11:53:51.916Z,5.40
2018-03-28T11:56:19.928Z,6.17
2018-03-28T11:58:48.692Z,6.10
2018-03-28T12:01:16.716Z,6.23
2018-03-28T12:03:48.360Z,6.27
2018-03-28T12:06:16.364Z,6.77
2018-03-28T12:08:46.379Z,4.97
2018-03-28T12:11:15.281Z,5.87
2018-03-28T12:13:44.260Z,5.00
2018-03-28T12:16:20.192Z,6.20
2018-03-28T12:18:49.131Z,5.13
2018-03-28T12:21:17.124Z,4.93
2018-03-28T12:23:45.892Z,4.87
2018-03-28T12:26:13.896Z,5.33
2018-03-28T12:28:42.657Z,5.00
2018-03-28T12:31:11.615Z,5.20
2018-03-28T12:33:57.800Z,5.37
2018-03-28T12:36:25.816Z,4.50
2018-03-28T12:38:55.612Z,5.40
2018-03-28T12:41:23.664Z,5.63
2018-03-28T12:43:51.674Z,5.40
2018-03-28T12:46:21.332Z,5.10
2018-03-28T12:48:50.351Z,4.40
2018-03-28T12:51:18.348Z,4.50
2018-03-28T12:53:47.145Z,4.40
2018-03-28T12:56:16.068Z,3.57
2018-03-28T12:58:44.071Z,4.60
2018-03-28T13:01:14.067Z,4.40
2018-03-28T13:03:42.071Z,3.87
2018-03-28T13:06:11.332Z,3.90
2018-03-28T13:08:39.342Z,4.17
2018-03-28T13:11:08.169Z,3.43
2018-03-28T13:13:42.576Z,4.27
2018-03-28T13:16:16.302Z,4.13
2018-03-28T13:19:08.328Z,3.47
2018-03-28T13:21:38.131Z,3.93
2018-03-28T13:24:08.095Z,3.77
2018-03-28T13:26:36.103Z,4.10
2018-03-28T13:29:08.483Z,4.10
2018-03-28T13:31:41.295Z,3.50
2018-03-28T13:34:09.308Z,2.93
2018-03-28T13:36:42.860Z,3.30
2018-03-28T13:39:10.899Z,3.70
2018-03-28T13:41:39.210Z,2.90
2018-03-28T13:44:07.199Z,3.10
2018-03-28T13:46:36.163Z,4.00
2018-03-28T13:49:19.171Z,3.47
2018-03-28T13:51:47.179Z,3.60
2018-03-28T13:54:15.183Z,4.27
2018-03-28T13:56:43.191Z,3.70
2018-03-28T13:59:12.175Z,3.63
2018-03-28T14:01:43.716Z,3.30
2018-03-28T14:04:11.719Z,4.47
2018-03-28T14:06:39.739Z,6.07
2018-03-28T14:09:12.156Z,4.60
2018-03-28T14:11:41.175Z,3.17
2018-03-28T14:14:14.867Z,3.20
2018-03-28T14:16:44.867Z,2.57
2018-03-28T14:19:17.492Z,3.03
2018-03-28T14:21:48.341Z,3.20
2018-03-28T14:24:17.178Z,2.53
2018-03-28T14:26:48.895Z,2.50
2018-03-28T14:29:19.815Z,2.97
2018-03-28T14:31:47.831Z,3.30
2018-03-28T14:34:15.831Z,3.20
2018-03-28T14:36:51.735Z,2.90
2018-03-28T14:39:19.764Z,2.77
2018-03-28T14:41:48.767Z,2.67
2018-03-28T14:44:17.526Z,2.90
2018-03-28T14:46:46.484Z,2.60
2018-03-28T14:49:14.499Z,2.20
2018-03-28T14:51:47.064Z,3.07
2018-03-28T14:54:16.035Z,2.80
2018-03-28T14:56:47.475Z,3.17
2018-03-28T14:59:16.248Z,2.83
2018-03-28T15:01:45.264Z,1.90
2018-03-28T15:04:13.271Z,2.50
2018-03-28T15:06:46.307Z,3.30
2018-03-28T15:09:15.211Z,3.07
2018-03-28T15:11:43.255Z,2.80
2018-03-28T15:14:11.283Z,3.60
2018-03-28T15:16:40.231Z,4.20
2018-03-28T15:19:08.236Z,3.80
2018-03-28T15:21:37.019Z,3.20
2018-03-28T15:24:05.022Z,3.90
2018-03-28T15:26:37.775Z,3.27
2018-03-28T15:29:06.839Z,2.63
2018-03-28T15:31:43.426Z,2.90
2018-03-28T15:34:15.247Z,2.83
2018-03-28T15:36:44.247Z,2.40
2018-03-28T15:39:14.181Z,2.50
2018-03-28T15:41:43.079Z,2.10
2018-03-28T15:44:16.263Z,2.33
2018-03-28T15:46:45.672Z,2.70
2018-03-28T15:52:11.665Z,3.30
2018-03-28T15:54:43.131Z,2.72
2018-03-28T15:57:11.227Z,4.00
2018-03-28T15:59:45.404Z,2.53
2018-03-28T16:02:13.414Z,3.30
2018-03-28T16:04:43.406Z,4.37
2018-03-28T16:07:15.686Z,3.00
2018-03-28T16:09:48.143Z,4.32
2018-03-28T16:12:16.182Z,4.00
2018-03-28T16:14:45.338Z,2.67
2018-03-28T16:17:20.740Z,2.45
2018-03-28T16:19:53.831Z,2.10
2018-03-28T16:22:23.778Z,2.72
2018-03-28T16:24:58.259Z,3.00
2018-03-28T16:27:38.815Z,3.15
2018-03-28T16:30:07.738Z,3.17
2018-03-28T16:32:37.747Z,3.10
2018-03-28T16:35:05.766Z,2.50
2018-03-28T16:37:35.522Z,2.72
2018-03-28T16:40:15.287Z,3.17
2018-03-28T16:42:58.234Z,2.90
2018-03-28T16:45:49.110Z,2.90
2018-03-28T16:48:41.389Z,2.80
2018-03-28T17:25:18.798Z,5.55
2018-03-28T17:27:48.555Z,3.60
2018-03-28T17:30:16.550Z,4.57
2018-03-28T17:32:46.534Z,5.35
2018-03-28T17:35:15.786Z,4.10
2018-03-28T17:37:44.746Z,3.15
2018-03-28T17:40:14.667Z,3.65
2018-03-28T17:42:48.474Z,4.70
2018-03-28T17:45:20.222Z,4.05
2018-03-28T17:48:05.426Z,4.03
2018-03-28T17:50:34.209Z,4.37
2018-03-28T17:53:06.405Z,4.05
2018-03-28T17:55:34.414Z,4.15
2018-03-28T17:58:06.174Z,3.90
2018-03-28T18:00:40.069Z,4.87
2018-03-28T18:03:09.962Z,4.10
2018-03-28T18:05:37.962Z,4.07
2018-03-28T18:08:24.798Z,5.03
2018-03-28T18:10:57.090Z,4.60
2018-03-28T18:13:31.482Z,5.80
2018-03-28T18:16:00.366Z,4.72
2018-03-28T18:18:34.946Z,4.90
2018-03-28T18:21:02.964Z,4.57
2018-03-28T18:23:31.935Z,4.82
2018-03-28T18:26:00.822Z,4.30
2018-03-28T18:28:28.826Z,7.18
2018-03-28T18:30:57.622Z,6.62
2018-03-28T18:33:29.734Z,5.25
2018-03-28T18:35:59.654Z,5.20
2018-03-28T18:38:28.928Z,5.90
2018-03-28T18:41:11.758Z,6.47
2018-03-28T18:43:49.958Z,8.27
2018-03-28T18:46:18.887Z,7.78
2018-03-28T18:48:51.566Z,7.80
2018-03-28T18:51:19.578Z,7.43
2018-03-28T18:53:48.445Z,6.90
2018-03-28T18:56:18.413Z,7.10
2018-03-28T18:59:10.871Z,7.30
2018-03-28T19:01:40.837Z,6.60
2018-03-28T19:04:11.001Z,7.20
2018-03-28T19:06:47.610Z,7.47
2018-03-28T19:09:20.010Z,9.18
2018-03-28T19:11:52.829Z,8.30
2018-03-28T19:14:20.840Z,8.25
2018-03-28T19:16:50.810Z,8.40
2018-03-28T19:19:18.838Z,8.50
2018-03-28T19:21:53.406Z,7.93
2018-03-28T19:24:33.533Z,7.93
2018-03-28T19:27:02.834Z,8.23
2018-03-28T19:29:32.785Z,8.35
2018-03-28T19:32:04.730Z,8.50
2018-03-28T19:34:34.702Z,9.63
2018-03-28T19:37:15.365Z,10.00
2018-03-28T19:39:51.365Z,10.98
2018-03-28T19:42:26.978Z,9.20
2018-03-28T19:44:55.006Z,7.40
2018-03-28T19:47:23.029Z,9.60
2018-03-28T19:49:51.990Z,8.45
2018-03-28T19:52:21.897Z,8.40
2018-03-28T19:54:50.709Z,8.50
2018-03-28T19:57:19.497Z,8.85
2018-03-28T19:59:51.198Z,9.10
2018-03-28T20:02:23.373Z,8.95
2018-03-28T20:04:56.143Z,7.90
2018-03-28T20:07:27.689Z,8.35
2018-03-28T20:09:56.710Z,9.93
2018-03-28T20:12:28.314Z,8.50
2018-03-28T20:14:57.089Z,8.82
2018-03-28T20:17:35.249Z,7.57
2018-03-28T20:20:15.729Z,7.32
2018-03-28T20:22:43.773Z,7.35
2018-03-28T20:25:16.885Z,5.82
2018-03-28T20:28:03.094Z,6.00
2018-03-28T20:30:31.930Z,5.60
2018-03-28T20:33:05.505Z,6.30
2018-03-28T20:35:43.720Z,5.60
2018-03-28T20:38:18.309Z,5.65
2018-03-28T20:43:42.889Z,6.05
2018-03-28T20:46:19.341Z,6.47
2018-03-28T20:48:54.265Z,6.22
2018-03-28T20:51:24.964Z,5.55
2018-03-28T20:54:04.845Z,5.65
2018-03-28T20:56:33.944Z,5.20
2018-03-28T20:59:14.509Z,5.10
2018-03-28T21:01:44.477Z,3.97
2018-03-28T21:04:13.421Z,3.78
2018-03-28T21:06:45.969Z,4.25
2018-03-28T21:09:14.940Z,2.95
2018-03-28T21:11:42.984Z,2.95
2018-03-28T21:14:12.993Z,2.90
2018-03-28T21:16:41.989Z,3.62
2018-03-28T21:19:10.037Z,3.15
2018-03-28T21:21:38.081Z,3.00
2018-03-28T21:24:08.002Z,3.60
2018-03-28T21:26:36.013Z,3.40
2018-03-28T21:29:06.041Z,3.90
2018-03-28T21:31:35.021Z,3.58
2018-03-28T21:34:04.005Z,4.10
2018-03-28T21:36:32.905Z,2.90
2018-03-28T21:39:07.277Z,3.60
2018-03-28T21:41:35.304Z,3.25
2018-03-28T21:44:16.984Z,2.80
2018-03-28T21:46:47.960Z,2.75
2018-03-28T21:49:20.589Z,2.92
2018-03-28T21:51:54.201Z,2.70
2018-03-28T21:54:22.193Z,2.85
2018-03-28T21:56:50.973Z,2.53
2018-03-28T21:59:20.765Z,3.10
2018-03-28T22:01:54.277Z,2.62
2018-03-28T22:04:27.785Z,2.65
2018-03-28T22:06:56.592Z,2.20
2018-03-28T22:09:26.800Z,2.70
2018-03-28T22:11:54.777Z,2.90
2018-03-28T22:14:23.725Z,2.40
2018-03-28T22:16:52.713Z,2.72
2018-03-28T22:19:20.729Z,2.80
2018-03-28T22:21:56.033Z,2.45
2018-03-28T22:24:29.976Z,2.55
2018-03-28T22:26:58.013Z,2.40
2018-03-28T22:29:26.992Z,2.22
2018-03-28T22:31:56.036Z,2.20
2018-03-28T22:34:29.001Z,2.20
2018-03-28T22:37:09.164Z,2.08
2018-03-28T22:39:39.905Z,2.20
2018-03-28T22:42:07.868Z,2.35
2018-03-28T22:44:38.562Z,2.40
2018-03-28T22:47:07.501Z,2.20
2018-03-28T22:49:35.526Z,2.25
2018-03-28T22:52:03.540Z,2.50
2018-03-28T22:54:32.125Z,1.95
2018-03-28T22:57:00.144Z,2.87
2018-03-28T22:59:30.152Z,2.17
2018-03-28T23:02:04.633Z,2.35
2018-03-28T23:04:32.648Z,2.80
2018-03-28T23:07:00.665Z,2.85
2018-03-28T23:09:28.684Z,2.92
2018-03-28T23:12:02.030Z,2.83
2018-03-28T23:14:30.121Z,3.40
2018-03-28T23:16:58.090Z,3.95
2018-03-28T23:19:28.075Z,3.67
2018-03-28T23:21:57.937Z,3.50
2018-03-28T23:24:30.268Z,5.03
2018-03-28T23:27:00.475Z,4.30
2018-03-28T23:29:29.236Z,4.93
2018-03-28T23:32:00.051Z,4.53
2018-03-28T23:34:40.660Z,3.45
2018-03-28T23:37:12.997Z,4.78
2018-03-28T23:39:41.084Z,4.20
2018-03-28T23:42:10.120Z,5.35
2018-03-28T23:44:43.432Z,5.30
2018-03-28T23:47:13.080Z,6.05
2018-03-28T23:49:43.005Z,5.03
2018-03-28T23:52:12.015Z,6.97
2018-03-28T23:54:43.772Z,5.90
2018-03-28T23:57:14.440Z,6.95
2018-03-28T23:59:44.408Z,6.40
